Kezdőlap
METAR-TAF:

METAR-TAF

Repülőterek :

Philip Municipal Airport

Philip, Dél-Dakota, Amerikai Egyesült Államok

földrajzi szélesség: 44-03-04N, földrajzi hosszúság: 101-36-04W, magasság: 673 m

Jelenlegi meteorológiai megfigyelések

A jelentés 16 perccel ezelõtt készült, 21:55 UTC
Déli szél 7 kt
Hőmérséklet 14°C
Páratartalom 82%
Légköri nyomás 1009 hPa
Látótávolság: 16.1 km
Borult 7500 lábon
zivatar a közelben, enyhe esõ

METAR: KPHP 262155Z AUTO 18007KT 10SM VCTS -RA OVC075 14/11 A2981 RMK AO2 LTG DSNT ALQDS RAB2050B02 TSB2031E2038E2055E11B22E37 SLP095 P0005 T01390111 $

Idő: 16:11 (22:11 UTC)


TAF: hiányzik

Meteorológiai megfigyelések és előrejelzések több, mint 4000 repülőtéren (METAR és TAF jelentéseket).

A térképen piros és sárga pontok jelzik az elérhető meteorológiai állomásokat.

Mozgassa az egeret a pont fölött, hogy megjelenjen az állomás neve.

Azután kattintson az időjárási megfigyelések és előrejelzések megtekintéséhez.

A térkép megváltoztatása: kattintson a fekete keresztel jelölt zöld gombra ráközelítéshez, a vonallal jelölt zöld gombra távolításhoz, vagy a zöld nyilakra a szomszédos térképek eléréséhez.


METAR-TAF: